sensor_id;sensor_type;location;lat;lon;timestamp;P1;durP1;ratioP1;P2;durP2;ratioP2
22644;SDS011;11489;50.834;6.752;2023-05-25T00:00:10;11.35;;;6.30;;
22644;SDS011;11489;50.834;6.752;2023-05-25T00:02:37;11.43;;;6.05;;
22644;SDS011;11489;50.834;6.752;2023-05-25T00:05:04;9.23;;;5.72;;
22644;SDS011;11489;50.834;6.752;2023-05-25T00:07:31;9.23;;;5.18;;
22644;SDS011;11489;50.834;6.752;2023-05-25T00:09:57;11.45;;;6.00;;
22644;SDS011;11489;50.834;6.752;2023-05-25T00:12:23;12.80;;;5.95;;
22644;SDS011;11489;50.834;6.752;2023-05-25T00:14:48;11.05;;;6.28;;
22644;SDS011;11489;50.834;6.752;2023-05-25T00:17:14;9.57;;;5.22;;
22644;SDS011;11489;50.834;6.752;2023-05-25T00:19:43;12.80;;;5.28;;
22644;SDS011;11489;50.834;6.752;2023-05-25T00:22:09;12.98;;;5.97;;
22644;SDS011;11489;50.834;6.752;2023-05-25T00:24:36;11.82;;;4.97;;
22644;SDS011;11489;50.834;6.752;2023-05-25T00:27:03;11.38;;;5.57;;
22644;SDS011;11489;50.834;6.752;2023-05-25T00:29:28;11.40;;;5.55;;
22644;SDS011;11489;50.834;6.752;2023-05-25T00:31:54;10.00;;;5.60;;
22644;SDS011;11489;50.834;6.752;2023-05-25T00:34:20;8.52;;;5.63;;
22644;SDS011;11489;50.834;6.752;2023-05-25T00:36:46;14.18;;;5.93;;
22644;SDS011;11489;50.834;6.752;2023-05-25T00:39:13;12.13;;;5.95;;
22644;SDS011;11489;50.834;6.752;2023-05-25T00:41:40;11.30;;;5.28;;
22644;SDS011;11489;50.834;6.752;2023-05-25T00:44:08;8.02;;;5.20;;
22644;SDS011;11489;50.834;6.752;2023-05-25T00:46:35;9.52;;;5.15;;
22644;SDS011;11489;50.834;6.752;2023-05-25T00:49:02;11.75;;;5.70;;
22644;SDS011;11489;50.834;6.752;2023-05-25T00:51:28;10.60;;;5.10;;
22644;SDS011;11489;50.834;6.752;2023-05-25T00:53:57;13.38;;;5.85;;
22644;SDS011;11489;50.834;6.752;2023-05-25T00:56:23;11.68;;;5.72;;
22644;SDS011;11489;50.834;6.752;2023-05-25T00:58:53;11.00;;;5.65;;
22644;SDS011;11489;50.834;6.752;2023-05-25T01:01:21;15.68;;;6.10;;
22644;SDS011;11489;50.834;6.752;2023-05-25T01:03:48;11.52;;;5.63;;
22644;SDS011;11489;50.834;6.752;2023-05-25T01:06:21;11.88;;;5.07;;
22644;SDS011;11489;50.834;6.752;2023-05-25T01:08:51;11.88;;;6.35;;
22644;SDS011;11489;50.834;6.752;2023-05-25T01:11:23;11.02;;;5.80;;
22644;SDS011;11489;50.834;6.752;2023-05-25T01:13:52;11.85;;;6.03;;
22644;SDS011;11489;50.834;6.752;2023-05-25T01:16:19;9.55;;;6.03;;
22644;SDS011;11489;50.834;6.752;2023-05-25T01:18:45;7.50;;;5.40;;
22644;SDS011;11489;50.834;6.752;2023-05-25T01:21:26;9.30;;;5.82;;
22644;SDS011;11489;50.834;6.752;2023-05-25T01:24:08;11.50;;;6.28;;
22644;SDS011;11489;50.834;6.752;2023-05-25T01:26:57;11.15;;;5.57;;
22644;SDS011;11489;50.834;6.752;2023-05-25T01:29:27;11.50;;;5.67;;
22644;SDS011;11489;50.834;6.752;2023-05-25T01:31:56;8.00;;;5.43;;
22644;SDS011;11489;50.834;6.752;2023-05-25T01:34:23;13.30;;;5.95;;
22644;SDS011;11489;50.834;6.752;2023-05-25T01:36:50;9.48;;;5.40;;
22644;SDS011;11489;50.834;6.752;2023-05-25T01:39:16;10.80;;;5.88;;
22644;SDS011;11489;50.834;6.752;2023-05-25T01:44:13;11.15;;;5.30;;
22644;SDS011;11489;50.834;6.752;2023-05-25T01:46:39;11.07;;;5.60;;
22644;SDS011;11489;50.834;6.752;2023-05-25T01:49:15;10.07;;;5.82;;
22644;SDS011;11489;50.834;6.752;2023-05-25T01:51:43;10.07;;;5.63;;
22644;SDS011;11489;50.834;6.752;2023-05-25T01:54:20;11.73;;;5.63;;
22644;SDS011;11489;50.834;6.752;2023-05-25T01:56:50;8.90;;;4.88;;
22644;SDS011;11489;50.834;6.752;2023-05-25T01:59:19;12.37;;;5.43;;
22644;SDS011;11489;50.834;6.752;2023-05-25T02:01:45;9.60;;;4.90;;
22644;SDS011;11489;50.834;6.752;2023-05-25T02:04:14;9.07;;;4.90;;
22644;SDS011;11489;50.834;6.752;2023-05-25T02:06:41;8.07;;;4.93;;
22644;SDS011;11489;50.834;6.752;2023-05-25T02:09:07;10.13;;;5.20;;
22644;SDS011;11489;50.834;6.752;2023-05-25T02:11:33;8.30;;;4.93;;
22644;SDS011;11489;50.834;6.752;2023-05-25T02:13:58;8.07;;;5.30;;
22644;SDS011;11489;50.834;6.752;2023-05-25T02:16:24;10.43;;;5.33;;
22644;SDS011;11489;50.834;6.752;2023-05-25T02:18:51;9.77;;;5.13;;
22644;SDS011;11489;50.834;6.752;2023-05-25T02:21:17;11.50;;;6.17;;
22644;SDS011;11489;50.834;6.752;2023-05-25T02:23:43;11.87;;;5.47;;
22644;SDS011;11489;50.834;6.752;2023-05-25T02:26:10;8.83;;;5.43;;
22644;SDS011;11489;50.834;6.752;2023-05-25T02:28:36;11.07;;;4.93;;
22644;SDS011;11489;50.834;6.752;2023-05-25T02:31:01;8.93;;;5.17;;
22644;SDS011;11489;50.834;6.752;2023-05-25T02:33:27;13.13;;;6.17;;
22644;SDS011;11489;50.834;6.752;2023-05-25T02:35:52;9.43;;;5.20;;
22644;SDS011;11489;50.834;6.752;2023-05-25T02:38:18;11.10;;;5.60;;
22644;SDS011;11489;50.834;6.752;2023-05-25T02:40:44;10.17;;;5.70;;
22644;SDS011;11489;50.834;6.752;2023-05-25T02:43:10;13.53;;;5.47;;
22644;SDS011;11489;50.834;6.752;2023-05-25T02:45:35;12.87;;;5.50;;
22644;SDS011;11489;50.834;6.752;2023-05-25T02:48:01;10.57;;;5.57;;
22644;SDS011;11489;50.834;6.752;2023-05-25T02:50:27;10.73;;;5.17;;
22644;SDS011;11489;50.834;6.752;2023-05-25T02:52:52;12.17;;;5.40;;
22644;SDS011;11489;50.834;6.752;2023-05-25T02:55:19;11.97;;;5.57;;
22644;SDS011;11489;50.834;6.752;2023-05-25T02:57:44;10.23;;;5.00;;
22644;SDS011;11489;50.834;6.752;2023-05-25T03:00:10;11.43;;;5.43;;
22644;SDS011;11489;50.834;6.752;2023-05-25T03:02:36;12.03;;;5.47;;
22644;SDS011;11489;50.834;6.752;2023-05-25T03:05:03;10.63;;;5.57;;
22644;SDS011;11489;50.834;6.752;2023-05-25T03:07:29;9.90;;;5.30;;
22644;SDS011;11489;50.834;6.752;2023-05-25T03:09:55;8.87;;;5.07;;
22644;SDS011;11489;50.834;6.752;2023-05-25T03:12:20;9.60;;;5.90;;
22644;SDS011;11489;50.834;6.752;2023-05-25T03:14:46;11.60;;;5.13;;
22644;SDS011;11489;50.834;6.752;2023-05-25T03:17:12;12.07;;;5.90;;
22644;SDS011;11489;50.834;6.752;2023-05-25T03:19:37;10.93;;;5.70;;
22644;SDS011;11489;50.834;6.752;2023-05-25T03:22:03;11.73;;;5.53;;
22644;SDS011;11489;50.834;6.752;2023-05-25T03:24:29;9.47;;;5.40;;
22644;SDS011;11489;50.834;6.752;2023-05-25T03:26:54;8.47;;;5.07;;
22644;SDS011;11489;50.834;6.752;2023-05-25T03:29:20;11.20;;;5.57;;
22644;SDS011;11489;50.834;6.752;2023-05-25T03:31:46;9.90;;;5.77;;
22644;SDS011;11489;50.834;6.752;2023-05-25T03:34:11;10.37;;;5.27;;
22644;SDS011;11489;50.834;6.752;2023-05-25T03:36:37;10.57;;;5.53;;
22644;SDS011;11489;50.834;6.752;2023-05-25T03:39:03;9.70;;;5.13;;
22644;SDS011;11489;50.834;6.752;2023-05-25T03:41:30;8.67;;;4.57;;
22644;SDS011;11489;50.834;6.752;2023-05-25T03:43:55;9.37;;;5.40;;
22644;SDS011;11489;50.834;6.752;2023-05-25T03:46:21;9.87;;;5.13;;
22644;SDS011;11489;50.834;6.752;2023-05-25T03:48:47;12.37;;;5.20;;
22644;SDS011;11489;50.834;6.752;2023-05-25T03:51:12;10.40;;;5.07;;
22644;SDS011;11489;50.834;6.752;2023-05-25T03:53:38;9.70;;;5.40;;
22644;SDS011;11489;50.834;6.752;2023-05-25T03:56:04;9.37;;;5.27;;
22644;SDS011;11489;50.834;6.752;2023-05-25T03:58:30;11.47;;;5.07;;
22644;SDS011;11489;50.834;6.752;2023-05-25T04:00:55;9.37;;;5.37;;
22644;SDS011;11489;50.834;6.752;2023-05-25T04:03:21;10.20;;;5.43;;
22644;SDS011;11489;50.834;6.752;2023-05-25T04:05:47;11.50;;;5.70;;
22644;SDS011;11489;50.834;6.752;2023-05-25T04:08:13;10.00;;;5.40;;
22644;SDS011;11489;50.834;6.752;2023-05-25T04:10:43;9.95;;;5.95;;
22644;SDS011;11489;50.834;6.752;2023-05-25T04:13:09;10.73;;;5.18;;
22644;SDS011;11489;50.834;6.752;2023-05-25T04:15:35;8.88;;;5.20;;
22644;SDS011;11489;50.834;6.752;2023-05-25T04:18:01;9.27;;;5.50;;
22644;SDS011;11489;50.834;6.752;2023-05-25T04:20:27;14.50;;;6.07;;
22644;SDS011;11489;50.834;6.752;2023-05-25T04:22:53;10.70;;;5.88;;
22644;SDS011;11489;50.834;6.752;2023-05-25T04:25:19;10.05;;;5.85;;
22644;SDS011;11489;50.834;6.752;2023-05-25T04:27:45;12.57;;;5.82;;
22644;SDS011;11489;50.834;6.752;2023-05-25T04:30:11;10.02;;;5.60;;
22644;SDS011;11489;50.834;6.752;2023-05-25T04:32:37;8.73;;;5.47;;
22644;SDS011;11489;50.834;6.752;2023-05-25T04:35:04;9.63;;;5.57;;
22644;SDS011;11489;50.834;6.752;2023-05-25T04:37:30;12.32;;;5.93;;
22644;SDS011;11489;50.834;6.752;2023-05-25T04:39:57;10.93;;;5.85;;
22644;SDS011;11489;50.834;6.752;2023-05-25T04:42:23;12.13;;;5.63;;
22644;SDS011;11489;50.834;6.752;2023-05-25T04:44:50;13.15;;;6.25;;
22644;SDS011;11489;50.834;6.752;2023-05-25T04:47:19;11.05;;;5.88;;
22644;SDS011;11489;50.834;6.752;2023-05-25T04:49:46;10.32;;;6.07;;
22644;SDS011;11489;50.834;6.752;2023-05-25T04:52:11;11.23;;;6.35;;
22644;SDS011;11489;50.834;6.752;2023-05-25T04:54:37;12.25;;;6.05;;
22644;SDS011;11489;50.834;6.752;2023-05-25T04:57:03;11.20;;;6.10;;
22644;SDS011;11489;50.834;6.752;2023-05-25T04:59:29;11.18;;;5.63;;
22644;SDS011;11489;50.834;6.752;2023-05-25T05:01:54;12.00;;;6.20;;
22644;SDS011;11489;50.834;6.752;2023-05-25T05:04:20;14.07;;;5.97;;
22644;SDS011;11489;50.834;6.752;2023-05-25T05:06:45;10.85;;;6.40;;
22644;SDS011;11489;50.834;6.752;2023-05-25T05:09:11;11.25;;;5.82;;
22644;SDS011;11489;50.834;6.752;2023-05-25T05:11:37;11.90;;;6.63;;
22644;SDS011;11489;50.834;6.752;2023-05-25T05:14:03;13.75;;;6.32;;
22644;SDS011;11489;50.834;6.752;2023-05-25T05:16:28;10.45;;;6.13;;
22644;SDS011;11489;50.834;6.752;2023-05-25T05:18:58;11.05;;;6.50;;
22644;SDS011;11489;50.834;6.752;2023-05-25T05:21:25;13.90;;;6.80;;
22644;SDS011;11489;50.834;6.752;2023-05-25T05:23:51;12.05;;;6.82;;
22644;SDS011;11489;50.834;6.752;2023-05-25T05:26:16;14.15;;;7.60;;
22644;SDS011;11489;50.834;6.752;2023-05-25T05:28:42;15.73;;;7.13;;
22644;SDS011;11489;50.834;6.752;2023-05-25T05:31:08;16.48;;;7.45;;
22644;SDS011;11489;50.834;6.752;2023-05-25T05:33:33;17.85;;;7.05;;
22644;SDS011;11489;50.834;6.752;2023-05-25T05:35:59;15.57;;;7.05;;
22644;SDS011;11489;50.834;6.752;2023-05-25T05:38:26;13.07;;;7.38;;
22644;SDS011;11489;50.834;6.752;2023-05-25T05:40:52;11.02;;;6.60;;
22644;SDS011;11489;50.834;6.752;2023-05-25T05:43:17;14.27;;;6.70;;
22644;SDS011;11489;50.834;6.752;2023-05-25T05:45:43;13.98;;;7.18;;
22644;SDS011;11489;50.834;6.752;2023-05-25T05:48:09;14.15;;;6.07;;
22644;SDS011;11489;50.834;6.752;2023-05-25T05:50:38;12.73;;;6.45;;
22644;SDS011;11489;50.834;6.752;2023-05-25T05:53:04;12.05;;;6.65;;
22644;SDS011;11489;50.834;6.752;2023-05-25T05:55:31;10.27;;;6.88;;
22644;SDS011;11489;50.834;6.752;2023-05-25T05:57:57;11.43;;;6.47;;
22644;SDS011;11489;50.834;6.752;2023-05-25T06:00:22;13.73;;;7.05;;
22644;SDS011;11489;50.834;6.752;2023-05-25T06:02:48;14.23;;;7.50;;
22644;SDS011;11489;50.834;6.752;2023-05-25T06:05:14;19.25;;;7.88;;
22644;SDS011;11489;50.834;6.752;2023-05-25T06:07:40;21.45;;;7.95;;
22644;SDS011;11489;50.834;6.752;2023-05-25T06:10:06;19.50;;;8.13;;
22644;SDS011;11489;50.834;6.752;2023-05-25T06:12:32;16.20;;;8.25;;
22644;SDS011;11489;50.834;6.752;2023-05-25T06:14:58;15.07;;;8.05;;
22644;SDS011;11489;50.834;6.752;2023-05-25T06:17:24;15.10;;;7.55;;
22644;SDS011;11489;50.834;6.752;2023-05-25T06:19:49;15.38;;;8.02;;
22644;SDS011;11489;50.834;6.752;2023-05-25T06:22:15;17.33;;;8.13;;
22644;SDS011;11489;50.834;6.752;2023-05-25T06:24:41;17.17;;;7.90;;
22644;SDS011;11489;50.834;6.752;2023-05-25T06:27:07;16.92;;;7.70;;
22644;SDS011;11489;50.834;6.752;2023-05-25T06:29:33;13.05;;;7.22;;
22644;SDS011;11489;50.834;6.752;2023-05-25T06:31:58;14.82;;;7.55;;
22644;SDS011;11489;50.834;6.752;2023-05-25T06:34:24;16.95;;;7.72;;
22644;SDS011;11489;50.834;6.752;2023-05-25T06:36:50;21.98;;;8.07;;
22644;SDS011;11489;50.834;6.752;2023-05-25T06:39:16;15.40;;;7.50;;
22644;SDS011;11489;50.834;6.752;2023-05-25T06:41:42;16.45;;;7.30;;
22644;SDS011;11489;50.834;6.752;2023-05-25T06:44:08;14.75;;;7.65;;
22644;SDS011;11489;50.834;6.752;2023-05-25T06:46:33;16.63;;;7.50;;
22644;SDS011;11489;50.834;6.752;2023-05-25T06:49:00;18.60;;;7.68;;
22644;SDS011;11489;50.834;6.752;2023-05-25T06:51:26;11.45;;;7.05;;
22644;SDS011;11489;50.834;6.752;2023-05-25T06:53:53;17.77;;;8.55;;
22644;SDS011;11489;50.834;6.752;2023-05-25T06:56:19;17.08;;;7.75;;
22644;SDS011;11489;50.834;6.752;2023-05-25T06:58:45;15.23;;;7.47;;
22644;SDS011;11489;50.834;6.752;2023-05-25T07:01:11;15.65;;;8.57;;
22644;SDS011;11489;50.834;6.752;2023-05-25T07:03:36;19.00;;;7.85;;
22644;SDS011;11489;50.834;6.752;2023-05-25T07:06:03;13.05;;;7.78;;
22644;SDS011;11489;50.834;6.752;2023-05-25T07:08:29;16.75;;;8.05;;
22644;SDS011;11489;50.834;6.752;2023-05-25T07:10:55;17.30;;;8.52;;
22644;SDS011;11489;50.834;6.752;2023-05-25T07:13:21;18.20;;;9.20;;
22644;SDS011;11489;50.834;6.752;2023-05-25T07:15:47;21.50;;;9.15;;
22644;SDS011;11489;50.834;6.752;2023-05-25T07:18:12;18.70;;;9.27;;
22644;SDS011;11489;50.834;6.752;2023-05-25T07:20:39;17.60;;;9.45;;
22644;SDS011;11489;50.834;6.752;2023-05-25T07:23:09;16.42;;;8.63;;
22644;SDS011;11489;50.834;6.752;2023-05-25T07:25:39;18.77;;;10.10;;
22644;SDS011;11489;50.834;6.752;2023-05-25T07:28:05;24.95;;;9.48;;
22644;SDS011;11489;50.834;6.752;2023-05-25T07:30:31;16.73;;;9.27;;
22644;SDS011;11489;50.834;6.752;2023-05-25T07:32:58;19.20;;;9.90;;
22644;SDS011;11489;50.834;6.752;2023-05-25T07:35:24;21.02;;;9.30;;
22644;SDS011;11489;50.834;6.752;2023-05-25T07:38:00;21.98;;;9.98;;
22644;SDS011;11489;50.834;6.752;2023-05-25T07:40:28;17.75;;;9.27;;
22644;SDS011;11489;50.834;6.752;2023-05-25T07:42:54;17.38;;;8.95;;
22644;SDS011;11489;50.834;6.752;2023-05-25T07:45:20;16.83;;;8.27;;
22644;SDS011;11489;50.834;6.752;2023-05-25T07:47:46;19.55;;;9.00;;
22644;SDS011;11489;50.834;6.752;2023-05-25T07:50:12;16.00;;;8.27;;
22644;SDS011;11489;50.834;6.752;2023-05-25T07:52:39;17.23;;;7.50;;
22644;SDS011;11489;50.834;6.752;2023-05-25T07:55:05;14.75;;;7.38;;
22644;SDS011;11489;50.834;6.752;2023-05-25T07:57:31;26.98;;;8.55;;
22644;SDS011;11489;50.834;6.752;2023-05-25T07:59:57;18.42;;;7.22;;
22644;SDS011;11489;50.834;6.752;2023-05-25T08:02:24;16.85;;;8.02;;
22644;SDS011;11489;50.834;6.752;2023-05-25T08:04:50;14.40;;;7.50;;
22644;SDS011;11489;50.834;6.752;2023-05-25T08:07:17;14.52;;;7.60;;
22644;SDS011;11489;50.834;6.752;2023-05-25T08:09:43;13.85;;;7.22;;
22644;SDS011;11489;50.834;6.752;2023-05-25T08:12:09;13.88;;;7.30;;
22644;SDS011;11489;50.834;6.752;2023-05-25T08:14:35;15.90;;;7.53;;
22644;SDS011;11489;50.834;6.752;2023-05-25T08:17:00;13.15;;;6.55;;
22644;SDS011;11489;50.834;6.752;2023-05-25T08:19:26;16.00;;;7.30;;
22644;SDS011;11489;50.834;6.752;2023-05-25T08:21:55;12.13;;;7.28;;
22644;SDS011;11489;50.834;6.752;2023-05-25T08:24:21;12.40;;;6.65;;
22644;SDS011;11489;50.834;6.752;2023-05-25T08:26:46;18.25;;;8.02;;
22644;SDS011;11489;50.834;6.752;2023-05-25T08:29:13;20.00;;;8.10;;
22644;SDS011;11489;50.834;6.752;2023-05-25T08:31:38;12.23;;;7.05;;
22644;SDS011;11489;50.834;6.752;2023-05-25T08:34:06;17.02;;;7.10;;
22644;SDS011;11489;50.834;6.752;2023-05-25T08:36:32;12.20;;;6.43;;
22644;SDS011;11489;50.834;6.752;2023-05-25T08:39:00;15.50;;;7.28;;
22644;SDS011;11489;50.834;6.752;2023-05-25T08:41:28;16.27;;;6.60;;
22644;SDS011;11489;50.834;6.752;2023-05-25T08:43:54;13.50;;;6.60;;
22644;SDS011;11489;50.834;6.752;2023-05-25T08:46:29;18.42;;;7.68;;
22644;SDS011;11489;50.834;6.752;2023-05-25T08:48:58;18.50;;;7.05;;
22644;SDS011;11489;50.834;6.752;2023-05-25T08:51:36;13.05;;;6.47;;
22644;SDS011;11489;50.834;6.752;2023-05-25T08:54:05;15.88;;;7.20;;
22644;SDS011;11489;50.834;6.752;2023-05-25T08:56:34;15.10;;;7.20;;
22644;SDS011;11489;50.834;6.752;2023-05-25T09:01:58;10.52;;;5.85;;
22644;SDS011;11489;50.834;6.752;2023-05-25T09:04:33;11.40;;;5.65;;
22644;SDS011;11489;50.834;6.752;2023-05-25T09:06:58;13.80;;;6.32;;
22644;SDS011;11489;50.834;6.752;2023-05-25T09:09:25;13.23;;;6.22;;
22644;SDS011;11489;50.834;6.752;2023-05-25T09:11:51;10.52;;;6.28;;
22644;SDS011;11489;50.834;6.752;2023-05-25T09:14:17;11.75;;;6.20;;
22644;SDS011;11489;50.834;6.752;2023-05-25T09:16:43;11.88;;;7.20;;
22644;SDS011;11489;50.834;6.752;2023-05-25T09:19:10;12.18;;;5.60;;
22644;SDS011;11489;50.834;6.752;2023-05-25T09:21:36;15.52;;;5.20;;
22644;SDS011;11489;50.834;6.752;2023-05-25T09:24:02;11.98;;;5.35;;
22644;SDS011;11489;50.834;6.752;2023-05-25T09:26:28;12.48;;;6.80;;
22644;SDS011;11489;50.834;6.752;2023-05-25T09:28:53;14.05;;;7.95;;
22644;SDS011;11489;50.834;6.752;2023-05-25T09:31:20;13.45;;;7.68;;
22644;SDS011;11489;50.834;6.752;2023-05-25T09:33:47;19.38;;;8.10;;
22644;SDS011;11489;50.834;6.752;2023-05-25T09:36:14;14.05;;;7.38;;
22644;SDS011;11489;50.834;6.752;2023-05-25T09:38:40;13.82;;;6.93;;
22644;SDS011;11489;50.834;6.752;2023-05-25T09:41:06;12.68;;;7.90;;
22644;SDS011;11489;50.834;6.752;2023-05-25T09:43:32;14.27;;;7.28;;
22644;SDS011;11489;50.834;6.752;2023-05-25T09:45:57;15.05;;;7.15;;
22644;SDS011;11489;50.834;6.752;2023-05-25T09:48:23;14.48;;;6.30;;
22644;SDS011;11489;50.834;6.752;2023-05-25T09:50:49;10.70;;;6.70;;
22644;SDS011;11489;50.834;6.752;2023-05-25T09:53:15;13.55;;;7.28;;
22644;SDS011;11489;50.834;6.752;2023-05-25T09:55:41;18.92;;;7.30;;
22644;SDS011;11489;50.834;6.752;2023-05-25T09:58:06;14.93;;;6.10;;
22644;SDS011;11489;50.834;6.752;2023-05-25T10:00:32;12.73;;;6.00;;
22644;SDS011;11489;50.834;6.752;2023-05-25T10:02:58;10.25;;;5.88;;
22644;SDS011;11489;50.834;6.752;2023-05-25T10:05:24;12.13;;;5.97;;
22644;SDS011;11489;50.834;6.752;2023-05-25T10:07:50;13.27;;;6.35;;
22644;SDS011;11489;50.834;6.752;2023-05-25T10:10:18;12.40;;;6.80;;
22644;SDS011;11489;50.834;6.752;2023-05-25T10:12:44;12.85;;;6.57;;
22644;SDS011;11489;50.834;6.752;2023-05-25T10:15:16;12.02;;;6.82;;
22644;SDS011;11489;50.834;6.752;2023-05-25T10:17:54;10.27;;;5.90;;
22644;SDS011;11489;50.834;6.752;2023-05-25T10:20:21;13.20;;;5.30;;
22644;SDS011;11489;50.834;6.752;2023-05-25T10:25:49;12.20;;;5.70;;
22644;SDS011;11489;50.834;6.752;2023-05-25T10:28:27;10.88;;;5.70;;
22644;SDS011;11489;50.834;6.752;2023-05-25T10:30:56;13.07;;;6.03;;
22644;SDS011;11489;50.834;6.752;2023-05-25T10:33:23;16.02;;;6.60;;
22644;SDS011;11489;50.834;6.752;2023-05-25T10:35:49;11.93;;;6.20;;
22644;SDS011;11489;50.834;6.752;2023-05-25T10:38:15;11.98;;;5.78;;
22644;SDS011;11489;50.834;6.752;2023-05-25T10:40:43;9.68;;;5.70;;
22644;SDS011;11489;50.834;6.752;2023-05-25T10:43:11;9.43;;;6.35;;
22644;SDS011;11489;50.834;6.752;2023-05-25T10:45:39;12.35;;;6.60;;
22644;SDS011;11489;50.834;6.752;2023-05-25T10:48:06;13.55;;;6.78;;
22644;SDS011;11489;50.834;6.752;2023-05-25T10:50:33;12.18;;;6.20;;
22644;SDS011;11489;50.834;6.752;2023-05-25T10:55:27;9.32;;;6.38;;
22644;SDS011;11489;50.834;6.752;2023-05-25T10:58:09;12.98;;;6.88;;
22644;SDS011;11489;50.834;6.752;2023-05-25T11:00:36;11.68;;;6.75;;
22644;SDS011;11489;50.834;6.752;2023-05-25T11:03:02;12.02;;;7.10;;
22644;SDS011;11489;50.834;6.752;2023-05-25T11:05:32;16.38;;;6.10;;
22644;SDS011;11489;50.834;6.752;2023-05-25T11:08:00;11.80;;;6.57;;
22644;SDS011;11489;50.834;6.752;2023-05-25T11:24:01;12.05;;;6.75;;
22644;SDS011;11489;50.834;6.752;2023-05-25T11:26:34;14.90;;;7.97;;
22644;SDS011;11489;50.834;6.752;2023-05-25T11:29:10;22.35;;;7.75;;
22644;SDS011;11489;50.834;6.752;2023-05-25T11:31:37;17.95;;;7.40;;
22644;SDS011;11489;50.834;6.752;2023-05-25T11:34:03;10.13;;;6.45;;
22644;SDS011;11489;50.834;6.752;2023-05-25T11:36:30;10.30;;;6.90;;
22644;SDS011;11489;50.834;6.752;2023-05-25T11:38:57;15.55;;;8.05;;
22644;SDS011;11489;50.834;6.752;2023-05-25T11:41:27;15.15;;;7.85;;
22644;SDS011;11489;50.834;6.752;2023-05-25T11:43:53;15.90;;;8.23;;
22644;SDS011;11489;50.834;6.752;2023-05-25T11:46:20;16.25;;;8.38;;
22644;SDS011;11489;50.834;6.752;2023-05-25T11:48:52;14.23;;;8.77;;
22644;SDS011;11489;50.834;6.752;2023-05-25T11:51:22;13.80;;;8.10;;
22644;SDS011;11489;50.834;6.752;2023-05-25T11:53:49;11.18;;;7.13;;
22644;SDS011;11489;50.834;6.752;2023-05-25T11:56:16;15.27;;;8.30;;
22644;SDS011;11489;50.834;6.752;2023-05-25T11:58:43;13.43;;;8.40;;
22644;SDS011;11489;50.834;6.752;2023-05-25T12:01:14;15.43;;;7.60;;
22644;SDS011;11489;50.834;6.752;2023-05-25T12:03:52;12.45;;;7.18;;
22644;SDS011;11489;50.834;6.752;2023-05-25T12:06:25;14.02;;;7.25;;
22644;SDS011;11489;50.834;6.752;2023-05-25T12:08:52;13.20;;;7.72;;
22644;SDS011;11489;50.834;6.752;2023-05-25T12:13:58;13.75;;;5.93;;
22644;SDS011;11489;50.834;6.752;2023-05-25T12:16:25;14.35;;;5.60;;
22644;SDS011;11489;50.834;6.752;2023-05-25T12:18:51;9.15;;;5.55;;
22644;SDS011;11489;50.834;6.752;2023-05-25T12:21:18;9.70;;;6.00;;
22644;SDS011;11489;50.834;6.752;2023-05-25T12:23:45;10.48;;;5.50;;
22644;SDS011;11489;50.834;6.752;2023-05-25T12:26:12;12.20;;;6.00;;
22644;SDS011;11489;50.834;6.752;2023-05-25T12:28:40;7.78;;;4.82;;
22644;SDS011;11489;50.834;6.752;2023-05-25T12:31:26;9.57;;;4.90;;
22644;SDS011;11489;50.834;6.752;2023-05-25T12:34:20;11.23;;;4.90;;
22644;SDS011;11489;50.834;6.752;2023-05-25T12:36:52;11.48;;;5.40;;
22644;SDS011;11489;50.834;6.752;2023-05-25T12:41:54;7.10;;;4.20;;
22644;SDS011;11489;50.834;6.752;2023-05-25T12:44:25;8.10;;;4.80;;
22644;SDS011;11489;50.834;6.752;2023-05-25T12:46:53;10.07;;;4.95;;
22644;SDS011;11489;50.834;6.752;2023-05-25T12:49:30;12.02;;;4.70;;
22644;SDS011;11489;50.834;6.752;2023-05-25T12:52:03;8.88;;;4.80;;
22644;SDS011;11489;50.834;6.752;2023-05-25T12:56:59;10.30;;;5.07;;
22644;SDS011;11489;50.834;6.752;2023-05-25T12:59:27;7.97;;;4.53;;
22644;SDS011;11489;50.834;6.752;2023-05-25T13:01:53;6.88;;;4.50;;
22644;SDS011;11489;50.834;6.752;2023-05-25T13:04:18;7.95;;;4.60;;
22644;SDS011;11489;50.834;6.752;2023-05-25T13:06:44;6.65;;;4.30;;
22644;SDS011;11489;50.834;6.752;2023-05-25T13:09:10;8.65;;;5.40;;
22644;SDS011;11489;50.834;6.752;2023-05-25T13:11:35;11.52;;;4.65;;
22644;SDS011;11489;50.834;6.752;2023-05-25T13:14:01;7.03;;;3.88;;
22644;SDS011;11489;50.834;6.752;2023-05-25T13:16:29;7.15;;;4.07;;
22644;SDS011;11489;50.834;6.752;2023-05-25T13:18:56;8.65;;;4.32;;
22644;SDS011;11489;50.834;6.752;2023-05-25T13:21:22;6.20;;;3.60;;
22644;SDS011;11489;50.834;6.752;2023-05-25T13:23:47;7.70;;;4.25;;
22644;SDS011;11489;50.834;6.752;2023-05-25T13:26:13;8.98;;;3.80;;
22644;SDS011;11489;50.834;6.752;2023-05-25T13:28:39;6.65;;;4.22;;
22644;SDS011;11489;50.834;6.752;2023-05-25T13:31:05;9.55;;;4.47;;
22644;SDS011;11489;50.834;6.752;2023-05-25T13:33:30;10.05;;;4.82;;
22644;SDS011;11489;50.834;6.752;2023-05-25T13:35:56;8.13;;;4.72;;
22644;SDS011;11489;50.834;6.752;2023-05-25T13:38:22;8.55;;;4.28;;
22644;SDS011;11489;50.834;6.752;2023-05-25T13:40:48;7.38;;;4.80;;
22644;SDS011;11489;50.834;6.752;2023-05-25T13:43:14;10.07;;;5.65;;
22644;SDS011;11489;50.834;6.752;2023-05-25T13:45:40;10.45;;;6.05;;
22644;SDS011;11489;50.834;6.752;2023-05-25T13:48:06;11.52;;;5.68;;
22644;SDS011;11489;50.834;6.752;2023-05-25T13:50:32;8.35;;;5.35;;
22644;SDS011;11489;50.834;6.752;2023-05-25T13:52:57;9.43;;;6.00;;
22644;SDS011;11489;50.834;6.752;2023-05-25T13:55:23;10.30;;;6.25;;
22644;SDS011;11489;50.834;6.752;2023-05-25T13:57:49;10.07;;;6.00;;
22644;SDS011;11489;50.834;6.752;2023-05-25T14:00:16;10.02;;;5.28;;
22644;SDS011;11489;50.834;6.752;2023-05-25T14:02:42;11.95;;;6.10;;
22644;SDS011;11489;50.834;6.752;2023-05-25T14:05:08;10.82;;;6.57;;
22644;SDS011;11489;50.834;6.752;2023-05-25T14:07:33;13.02;;;6.50;;
22644;SDS011;11489;50.834;6.752;2023-05-25T14:09:59;10.35;;;5.90;;
22644;SDS011;11489;50.834;6.752;2023-05-25T14:12:25;8.80;;;5.55;;
22644;SDS011;11489;50.834;6.752;2023-05-25T14:14:51;11.27;;;5.93;;
22644;SDS011;11489;50.834;6.752;2023-05-25T14:17:16;10.98;;;6.20;;
22644;SDS011;11489;50.834;6.752;2023-05-25T14:19:42;13.80;;;7.15;;
22644;SDS011;11489;50.834;6.752;2023-05-25T14:22:08;11.15;;;6.55;;
22644;SDS011;11489;50.834;6.752;2023-05-25T14:24:33;10.75;;;6.75;;
22644;SDS011;11489;50.834;6.752;2023-05-25T14:26:59;8.50;;;5.20;;
22644;SDS011;11489;50.834;6.752;2023-05-25T14:29:25;11.27;;;7.03;;
22644;SDS011;11489;50.834;6.752;2023-05-25T14:31:51;10.82;;;6.45;;
22644;SDS011;11489;50.834;6.752;2023-05-25T14:34:17;11.45;;;5.80;;
22644;SDS011;11489;50.834;6.752;2023-05-25T14:36:42;11.20;;;6.38;;
22644;SDS011;11489;50.834;6.752;2023-05-25T14:39:08;12.82;;;7.55;;
22644;SDS011;11489;50.834;6.752;2023-05-25T14:41:34;9.32;;;6.30;;
22644;SDS011;11489;50.834;6.752;2023-05-25T14:43:59;8.85;;;6.13;;
22644;SDS011;11489;50.834;6.752;2023-05-25T14:46:25;12.05;;;6.20;;
22644;SDS011;11489;50.834;6.752;2023-05-25T14:48:51;11.55;;;6.20;;
22644;SDS011;11489;50.834;6.752;2023-05-25T14:51:16;11.68;;;6.30;;
22644;SDS011;11489;50.834;6.752;2023-05-25T14:53:42;9.18;;;5.63;;
22644;SDS011;11489;50.834;6.752;2023-05-25T14:56:08;9.73;;;5.82;;
22644;SDS011;11489;50.834;6.752;2023-05-25T14:58:34;8.60;;;5.55;;
22644;SDS011;11489;50.834;6.752;2023-05-25T15:01:00;12.52;;;5.95;;
22644;SDS011;11489;50.834;6.752;2023-05-25T15:03:25;10.52;;;5.90;;
22644;SDS011;11489;50.834;6.752;2023-05-25T15:05:51;9.77;;;6.40;;
22644;SDS011;11489;50.834;6.752;2023-05-25T15:08:17;11.88;;;6.70;;